createdAt,value
2018-01-27T00:00:11.773Z,5.80
2018-01-27T00:02:39.523Z,5.70
2018-01-27T00:05:08.110Z,5.70
2018-01-27T00:07:35.860Z,5.70
2018-01-27T00:10:03.615Z,5.80
2018-01-27T00:12:31.414Z,5.80
2018-01-27T00:14:59.166Z,5.80
2018-01-27T00:17:26.924Z,5.90
2018-01-27T00:19:54.743Z,5.90
2018-01-27T00:22:22.490Z,5.90
2018-01-27T00:24:51.010Z,5.90
2018-01-27T00:27:18.822Z,5.90
2018-01-27T00:29:47.338Z,5.90
2018-01-27T00:32:15.092Z,5.90
2018-01-27T00:34:42.894Z,5.90
2018-01-27T00:37:10.642Z,5.90
2018-01-27T00:39:38.405Z,5.90
2018-01-27T00:42:06.216Z,5.90
2018-01-27T00:44:34.762Z,5.90
2018-01-27T00:47:02.512Z,5.90
2018-01-27T00:49:30.315Z,5.90
2018-01-27T00:51:58.827Z,5.90
2018-01-27T00:54:26.575Z,5.90
2018-01-27T00:56:54.378Z,5.90
2018-01-27T00:59:22.130Z,5.90
2018-01-27T01:01:49.883Z,5.90
2018-01-27T01:04:17.690Z,5.90
2018-01-27T01:06:45.434Z,6.00
2018-01-27T01:09:13.182Z,6.00
2018-01-27T01:11:40.986Z,5.90
2018-01-27T01:14:09.502Z,5.90
2018-01-27T01:16:37.261Z,5.90
2018-01-27T01:19:05.062Z,5.80
2018-01-27T01:21:32.807Z,5.80
2018-01-27T01:24:00.567Z,5.90
2018-01-27T01:26:28.379Z,5.90
2018-01-27T01:28:56.899Z,5.80
2018-01-27T01:31:24.667Z,5.80
2018-01-27T01:33:52.470Z,5.80
2018-01-27T01:36:20.225Z,5.80
2018-01-27T01:38:47.987Z,5.80
2018-01-27T01:41:15.785Z,5.80
2018-01-27T01:43:49.115Z,5.70
2018-01-27T01:46:16.914Z,5.70
2018-01-27T01:48:44.665Z,5.70
2018-01-27T01:51:12.419Z,5.70
2018-01-27T01:53:40.221Z,5.70
2018-01-27T01:56:07.975Z,5.70
2018-01-27T01:58:36.489Z,5.70
2018-01-27T02:01:04.301Z,5.70
2018-01-27T02:03:32.826Z,5.70
2018-01-27T02:06:00.579Z,5.70
2018-01-27T02:08:28.599Z,5.70
2018-01-27T02:10:56.362Z,5.70
2018-01-27T02:13:24.113Z,5.70
2018-01-27T02:15:51.921Z,5.80
2018-01-27T02:18:19.666Z,5.70
2018-01-27T02:20:47.412Z,5.70
2018-01-27T02:23:15.217Z,5.80
2018-01-27T02:25:42.967Z,5.70
2018-01-27T02:28:10.735Z,5.70
2018-01-27T02:30:38.534Z,5.70
2018-01-27T02:33:06.281Z,5.70
2018-01-27T02:35:34.034Z,5.70
2018-01-27T02:38:01.869Z,5.70
2018-01-27T02:40:30.387Z,5.70
2018-01-27T02:42:58.135Z,5.70
2018-01-27T02:45:25.934Z,5.70
2018-01-27T02:47:53.701Z,5.60
2018-01-27T02:50:21.454Z,5.60
2018-01-27T02:52:50.065Z,5.60
2018-01-27T02:55:18.581Z,5.60
2018-01-27T02:57:46.327Z,5.60
2018-01-27T03:00:14.138Z,5.60
2018-01-27T03:02:41.888Z,5.60
2018-01-27T03:05:09.637Z,5.70
2018-01-27T03:07:37.448Z,5.70
2018-01-27T03:10:05.199Z,5.60
2018-01-27T03:12:32.954Z,5.70
2018-01-27T03:15:00.767Z,5.70
2018-01-27T03:17:28.528Z,5.60
2018-01-27T03:19:56.314Z,5.60
2018-01-27T03:22:24.125Z,5.60
2018-01-27T03:24:51.885Z,5.60
2018-01-27T03:27:19.631Z,5.60
2018-01-27T03:29:47.431Z,5.60
2018-01-27T03:32:15.185Z,5.60
2018-01-27T03:34:43.700Z,5.60
2018-01-27T03:37:11.497Z,5.60
2018-01-27T03:39:39.249Z,5.60
2018-01-27T03:42:07.777Z,5.70
2018-01-27T03:44:35.589Z,5.60
2018-01-27T03:47:03.346Z,5.70
2018-01-27T03:49:31.114Z,5.60
2018-01-27T03:51:58.913Z,5.60
2018-01-27T03:54:27.426Z,5.70
2018-01-27T03:56:55.178Z,5.60
2018-01-27T03:59:22.982Z,5.70
2018-01-27T04:01:50.735Z,5.70
2018-01-27T04:04:18.490Z,5.70
2018-01-27T04:06:46.290Z,5.70
2018-01-27T04:09:14.047Z,5.70
2018-01-27T04:11:41.814Z,5.70
2018-01-27T04:14:10.388Z,5.70
2018-01-27T04:16:38.142Z,5.70
2018-01-27T04:19:05.889Z,5.60
2018-01-27T04:21:33.694Z,5.50
2018-01-27T04:24:02.228Z,5.60
2018-01-27T04:26:29.974Z,5.50
2018-01-27T04:28:57.875Z,5.60
2018-01-27T04:31:25.632Z,5.60
2018-01-27T04:33:53.406Z,5.60
2018-01-27T04:36:21.227Z,5.60
2018-01-27T04:38:48.982Z,5.60
2018-01-27T04:41:16.733Z,5.60
2018-01-27T04:43:44.543Z,5.70
2018-01-27T04:46:12.290Z,5.70
2018-01-27T04:48:40.043Z,5.70
2018-01-27T04:51:07.842Z,5.60
2018-01-27T04:53:35.593Z,5.50
2018-01-27T04:56:03.350Z,5.60
2018-01-27T04:58:31.158Z,5.60
2018-01-27T05:00:58.910Z,5.70
2018-01-27T05:03:27.428Z,5.60
2018-01-27T05:05:55.231Z,5.70
2018-01-27T05:08:23.030Z,5.70
2018-01-27T05:10:50.784Z,5.70
2018-01-27T05:13:18.822Z,5.80
2018-01-27T05:15:46.577Z,5.80
2018-01-27T05:18:14.327Z,5.80
2018-01-27T05:20:42.179Z,5.80
2018-01-27T05:23:09.925Z,5.80
2018-01-27T05:25:37.674Z,5.80
2018-01-27T05:28:05.478Z,5.80
2018-01-27T05:30:33.230Z,5.80
2018-01-27T05:33:00.978Z,5.70
2018-01-27T05:35:28.779Z,5.70
2018-01-27T05:37:56.531Z,5.70
2018-01-27T05:40:24.278Z,5.70
2018-01-27T05:42:52.252Z,5.80
2018-01-27T05:45:20.006Z,5.80
2018-01-27T05:47:47.812Z,5.80
2018-01-27T05:50:15.622Z,5.80
2018-01-27T05:52:43.371Z,5.80
2018-01-27T05:55:11.119Z,5.70
2018-01-27T05:57:38.921Z,5.70
2018-01-27T06:00:06.677Z,5.70
2018-01-27T06:02:34.422Z,5.80
2018-01-27T06:05:02.226Z,5.80
2018-01-27T06:07:29.970Z,5.70
2018-01-27T06:09:57.732Z,5.70
2018-01-27T06:12:25.540Z,5.90
2018-01-27T06:14:53.299Z,5.90
2018-01-27T06:17:21.054Z,5.90
2018-01-27T06:19:49.627Z,5.90
2018-01-27T06:22:18.154Z,5.90
2018-01-27T06:24:45.907Z,5.90
2018-01-27T06:27:13.713Z,5.90
2018-01-27T06:29:41.471Z,5.90
2018-01-27T06:32:09.222Z,6.00
2018-01-27T06:34:37.030Z,5.90
2018-01-27T06:37:04.778Z,6.00
2018-01-27T06:39:33.291Z,6.00
2018-01-27T06:42:01.136Z,6.00
2018-01-27T06:44:28.899Z,6.00
2018-01-27T06:46:56.646Z,6.00
2018-01-27T06:49:25.222Z,6.10
2018-01-27T06:51:53.735Z,6.10
2018-01-27T06:54:21.483Z,6.10
2018-01-27T06:56:49.291Z,6.20
2018-01-27T06:59:17.053Z,6.20
2018-01-27T07:01:44.804Z,6.20
2018-01-27T07:04:12.616Z,6.20
2018-01-27T07:06:41.126Z,6.10
2018-01-27T07:09:08.878Z,6.10
2018-01-27T07:11:36.686Z,6.10
2018-01-27T07:14:04.443Z,6.10
2018-01-27T07:16:32.246Z,6.10
2018-01-27T07:19:00.813Z,6.20
2018-01-27T07:21:29.364Z,6.20
2018-01-27T07:23:57.118Z,6.20
2018-01-27T07:26:25.690Z,6.30
2018-01-27T07:28:53.447Z,6.30
2018-01-27T07:31:21.195Z,6.30
2018-01-27T07:33:49.010Z,6.30
2018-01-27T07:36:16.761Z,6.40
2018-01-27T07:38:44.516Z,6.30
2018-01-27T07:41:12.320Z,6.40
2018-01-27T07:43:40.835Z,6.30
2018-01-27T07:46:08.585Z,6.30
2018-01-27T07:48:36.399Z,6.40
2018-01-27T07:51:04.205Z,6.40
2018-01-27T07:53:31.955Z,6.50
2018-01-27T07:55:59.758Z,6.60
2018-01-27T07:58:27.506Z,6.60
2018-01-27T08:00:55.261Z,6.70
2018-01-27T08:03:23.063Z,6.70
2018-01-27T08:05:50.816Z,6.80
2018-01-27T08:08:18.572Z,6.80
2018-01-27T08:10:46.371Z,6.80
2018-01-27T08:13:14.894Z,6.90
2018-01-27T08:15:42.642Z,6.90
2018-01-27T08:18:10.451Z,6.90
2018-01-27T08:20:38.200Z,6.80
2018-01-27T08:23:05.953Z,6.80
2018-01-27T08:25:33.758Z,6.80
2018-01-27T08:28:01.514Z,6.80
2018-01-27T08:30:29.262Z,6.70
2018-01-27T08:32:57.675Z,6.70
2018-01-27T08:35:26.190Z,6.70
2018-01-27T08:37:53.939Z,6.70
2018-01-27T08:40:21.754Z,6.80
2018-01-27T08:42:49.527Z,6.80
2018-01-27T08:45:18.045Z,6.80
2018-01-27T08:47:45.846Z,6.80
2018-01-27T08:50:13.602Z,6.90
2018-01-27T08:52:41.383Z,6.90
2018-01-27T08:55:09.201Z,6.90
2018-01-27T08:57:36.974Z,6.90
2018-01-27T09:00:04.735Z,6.90
2018-01-27T09:02:32.544Z,7.00
2018-01-27T09:05:01.086Z,7.10
2018-01-27T09:07:29.606Z,7.10
2018-01-27T09:09:58.176Z,7.10
2018-01-27T09:12:25.926Z,7.10
2018-01-27T09:14:53.724Z,7.20
2018-01-27T09:17:22.307Z,7.40
2018-01-27T09:19:50.075Z,7.40
2018-01-27T09:22:17.830Z,7.40
2018-01-27T09:24:45.634Z,7.50
2018-01-27T09:27:13.417Z,7.50
2018-01-27T09:29:41.166Z,7.50
2018-01-27T09:32:08.970Z,7.50
2018-01-27T09:34:37.482Z,7.50
2018-01-27T09:37:05.227Z,7.50
2018-01-27T09:39:33.054Z,7.50
2018-01-27T09:42:00.802Z,7.60
2018-01-27T09:44:28.553Z,7.70
2018-01-27T09:46:56.355Z,7.80
2018-01-27T09:49:24.867Z,7.90
2018-01-27T09:51:52.618Z,7.90
2018-01-27T09:54:20.423Z,8.00
2018-01-27T09:56:48.175Z,8.10
2018-01-27T09:59:15.950Z,8.20
2018-01-27T10:01:43.759Z,8.30
2018-01-27T10:04:11.507Z,8.40
2018-01-27T10:06:40.026Z,8.60
2018-01-27T10:09:07.852Z,8.60
2018-01-27T10:11:36.367Z,8.60
2018-01-27T10:14:04.125Z,8.60
2018-01-27T10:16:31.933Z,8.60
2018-01-27T10:18:59.688Z,8.60
2018-01-27T10:21:27.468Z,8.70
2018-01-27T10:23:56.098Z,8.70
2018-01-27T10:26:23.850Z,8.70
2018-01-27T10:28:51.599Z,8.80
2018-01-27T10:31:19.398Z,8.90
2018-01-27T10:33:47.151Z,9.00
2018-01-27T10:36:14.904Z,9.10
2018-01-27T10:38:42.715Z,9.20
2018-01-27T10:41:10.467Z,9.30
2018-01-27T10:43:39.552Z,9.40
2018-01-27T10:46:07.529Z,9.40
2018-01-27T10:48:35.625Z,9.20
2018-01-27T10:51:04.144Z,9.20
2018-01-27T10:53:31.947Z,9.10
2018-01-27T10:55:59.697Z,9.10
2018-01-27T10:58:27.455Z,9.00
2018-01-27T11:00:55.338Z,8.90
2018-01-27T11:03:23.874Z,8.70
2018-01-27T11:05:51.630Z,8.70
2018-01-27T11:08:19.439Z,8.80
2018-01-27T11:10:47.310Z,8.90
2018-01-27T11:13:15.110Z,8.90
2018-01-27T11:15:42.910Z,9.00
2018-01-27T11:18:11.538Z,9.20
2018-01-27T11:20:40.051Z,9.60
2018-01-27T11:23:07.855Z,9.60
2018-01-27T11:25:36.421Z,9.80
2018-01-27T11:28:04.172Z,9.80
2018-01-27T11:30:31.980Z,9.70
2018-01-27T11:33:00.499Z,9.60
2018-01-27T11:35:28.254Z,9.60
2018-01-27T11:37:56.058Z,9.60
2018-01-27T11:40:24.306Z,9.60
2018-01-27T11:42:53.063Z,9.70
2018-01-27T11:45:20.899Z,9.50
2018-01-27T11:47:49.413Z,9.50
2018-01-27T11:50:17.171Z,9.50
2018-01-27T11:52:45.165Z,9.50
2018-01-27T11:55:12.946Z,9.20
2018-01-27T11:57:40.710Z,9.10
2018-01-27T12:00:08.534Z,9.10
2018-01-27T12:02:36.299Z,9.10
2018-01-27T12:05:04.071Z,9.00
2018-01-27T12:07:31.884Z,8.90
2018-01-27T12:10:00.432Z,9.10
2018-01-27T12:12:28.241Z,9.10
2018-01-27T12:14:56.054Z,9.10
2018-01-27T12:17:23.811Z,9.10
2018-01-27T12:19:51.571Z,9.10
2018-01-27T12:22:19.398Z,9.00
2018-01-27T12:24:47.207Z,9.10
2018-01-27T12:27:14.967Z,9.10
2018-01-27T12:29:42.767Z,9.10
2018-01-27T12:32:10.526Z,9.20
2018-01-27T12:34:39.049Z,9.20
2018-01-27T12:37:06.898Z,9.20
2018-01-27T12:39:34.693Z,9.20
2018-01-27T12:42:02.462Z,9.20
2018-01-27T12:44:30.420Z,9.20
2018-01-27T12:46:58.372Z,9.30
2018-01-27T12:49:26.226Z,9.30
2018-01-27T12:51:54.052Z,9.40
2018-01-27T12:54:22.856Z,9.50
2018-01-27T12:56:50.650Z,9.50
2018-01-27T12:59:18.467Z,9.50
2018-01-27T13:01:46.225Z,9.50
2018-01-27T13:04:15.089Z,9.50
2018-01-27T13:06:42.970Z,9.50
2018-01-27T13:09:11.491Z,9.40
2018-01-27T13:11:39.246Z,9.40
2018-01-27T13:14:07.138Z,9.30
2018-01-27T13:16:34.922Z,9.20
2018-01-27T13:19:02.772Z,9.20
2018-01-27T13:21:31.032Z,9.20
2018-01-27T13:23:58.859Z,9.10
2018-01-27T13:26:26.639Z,9.00
2018-01-27T13:28:54.467Z,9.00
2018-01-27T13:31:22.977Z,9.00
2018-01-27T13:33:50.726Z,9.00
2018-01-27T13:36:18.762Z,9.00
2018-01-27T13:38:46.548Z,8.90
2018-01-27T13:41:14.308Z,9.00
2018-01-27T13:43:42.120Z,9.00
2018-01-27T13:46:09.887Z,9.00
2018-01-27T13:48:37.678Z,9.00
2018-01-27T13:51:06.251Z,8.90
2018-01-27T13:53:34.008Z,8.90
2018-01-27T13:56:01.777Z,9.00
2018-01-27T13:58:29.595Z,9.00
2018-01-27T14:00:57.367Z,9.00
2018-01-27T14:03:25.147Z,9.00
2018-01-27T14:05:52.950Z,9.00
2018-01-27T14:08:20.922Z,9.00
2018-01-27T14:10:48.671Z,9.00
2018-01-27T14:13:17.251Z,9.00
2018-01-27T14:15:45.805Z,9.00
2018-01-27T14:18:13.562Z,9.00
2018-01-27T14:20:41.367Z,8.90
2018-01-27T14:23:09.126Z,8.80
2018-01-27T14:25:36.888Z,8.90
2018-01-27T14:28:04.694Z,8.90
2018-01-27T14:30:32.449Z,8.90
2018-01-27T14:33:00.207Z,8.90
2018-01-27T14:35:28.012Z,8.90
2018-01-27T14:37:55.768Z,8.80
2018-01-27T14:40:23.510Z,8.80
2018-01-27T14:42:51.566Z,8.80
2018-01-27T14:45:19.342Z,8.70
2018-01-27T14:47:47.103Z,8.60
2018-01-27T14:50:14.903Z,8.50
2018-01-27T14:52:43.424Z,8.50
2018-01-27T14:55:11.205Z,8.40
2018-01-27T14:57:39.776Z,8.40
2018-01-27T15:00:07.528Z,8.40
2018-01-27T15:02:35.276Z,8.40
2018-01-27T15:05:03.078Z,8.30
2018-01-27T15:07:30.825Z,8.30
2018-01-27T15:09:58.582Z,8.30
2018-01-27T15:12:26.388Z,8.30
2018-01-27T15:14:54.911Z,8.30
2018-01-27T15:17:22.686Z,8.30
2018-01-27T15:19:50.495Z,8.30
2018-01-27T15:22:19.007Z,8.20
2018-01-27T15:24:46.792Z,8.20
2018-01-27T15:27:14.599Z,8.20
2018-01-27T15:29:43.287Z,8.10
2018-01-27T15:32:11.156Z,8.10
2018-01-27T15:34:39.035Z,8.10
2018-01-27T15:37:06.803Z,8.10
2018-01-27T15:39:34.562Z,8.10
2018-01-27T15:42:02.368Z,8.00
2018-01-27T15:44:30.117Z,8.00
2018-01-27T15:46:58.096Z,7.90
2018-01-27T15:49:25.902Z,7.90
2018-01-27T15:51:53.649Z,7.90
2018-01-27T15:54:22.161Z,7.90
2018-01-27T15:56:49.971Z,7.90
2018-01-27T15:59:17.723Z,7.80
2018-01-27T16:01:45.471Z,7.90
2018-01-27T16:04:13.370Z,7.80
2018-01-27T16:06:41.918Z,7.80
2018-01-27T16:09:11.002Z,7.80
2018-01-27T16:11:40.499Z,7.80
2018-01-27T16:14:08.359Z,7.90
2018-01-27T16:16:36.421Z,7.80
2018-01-27T16:19:04.267Z,7.80
2018-01-27T16:21:32.033Z,7.80
2018-01-27T16:23:59.821Z,7.70
2018-01-27T16:26:27.660Z,7.70
2018-01-27T16:28:55.418Z,7.70
2018-01-27T16:31:24.171Z,7.70
2018-01-27T16:33:52.782Z,7.70
2018-01-27T16:36:20.571Z,7.70
2018-01-27T16:38:48.378Z,7.80
2018-01-27T16:41:16.198Z,7.70
2018-01-27T16:43:43.966Z,7.70
2018-01-27T16:46:11.830Z,7.70
2018-01-27T16:48:39.674Z,7.70
2018-01-27T16:51:08.309Z,7.70
2018-01-27T16:53:36.968Z,7.70
2018-01-27T16:56:04.807Z,7.70
2018-01-27T16:58:32.578Z,7.70
2018-01-27T17:01:00.327Z,7.70
2018-01-27T17:03:28.143Z,7.70
2018-01-27T17:05:55.891Z,7.70
2018-01-27T17:08:23.643Z,7.70
2018-01-27T17:10:51.452Z,7.70
2018-01-27T17:13:19.971Z,7.70
2018-01-27T17:15:47.728Z,7.70
2018-01-27T17:18:15.617Z,7.60
2018-01-27T17:20:43.374Z,7.60
2018-01-27T17:23:11.126Z,7.70
2018-01-27T17:25:39.693Z,7.70
2018-01-27T17:28:07.437Z,7.70
2018-01-27T17:30:35.197Z,7.70
2018-01-27T17:33:03.023Z,7.70
2018-01-27T17:35:30.776Z,7.70
2018-01-27T17:37:58.524Z,7.70
2018-01-27T17:40:26.330Z,7.70
2018-01-27T17:42:54.847Z,7.70
2018-01-27T17:45:22.627Z,7.70
2018-01-27T17:47:50.439Z,7.70
2018-01-27T17:50:18.952Z,7.70
2018-01-27T17:52:46.702Z,7.70
2018-01-27T17:55:14.502Z,7.60
2018-01-27T17:57:42.251Z,7.70
2018-01-27T18:00:10.008Z,7.60
2018-01-27T18:02:37.819Z,7.60
2018-01-27T18:05:06.339Z,7.50
2018-01-27T18:07:34.091Z,7.50
2018-01-27T18:10:01.955Z,7.50
2018-01-27T18:12:29.707Z,7.50
2018-01-27T18:14:57.472Z,7.50
2018-01-27T18:17:25.283Z,7.60
2018-01-27T18:19:53.039Z,7.60
2018-01-27T18:22:20.783Z,7.60
2018-01-27T18:24:48.623Z,7.50
2018-01-27T18:27:16.371Z,7.50
2018-01-27T18:29:44.118Z,7.50
2018-01-27T18:32:12.693Z,7.50
2018-01-27T18:34:41.256Z,7.50
2018-01-27T18:37:09.127Z,7.50
2018-01-27T18:39:36.931Z,7.50
2018-01-27T18:42:04.695Z,7.50
2018-01-27T18:44:32.595Z,7.50
2018-01-27T18:47:00.402Z,7.40
2018-01-27T18:49:28.978Z,7.50
2018-01-27T18:51:57.489Z,7.50
2018-01-27T18:54:25.308Z,7.50
2018-01-27T18:56:53.070Z,7.50
2018-01-27T18:59:20.819Z,7.50
2018-01-27T19:01:48.622Z,7.50
2018-01-27T19:04:16.380Z,7.50
2018-01-27T19:06:44.899Z,7.50
2018-01-27T19:09:12.705Z,7.50
2018-01-27T19:11:41.224Z,7.40
2018-01-27T19:14:08.972Z,7.40
2018-01-27T19:16:36.783Z,7.40
2018-01-27T19:19:04.538Z,7.40
2018-01-27T19:21:32.350Z,7.40
2018-01-27T19:24:01.097Z,7.30
2018-01-27T19:26:28.871Z,7.30
2018-01-27T19:28:56.622Z,7.30
2018-01-27T19:31:24.434Z,7.30
2018-01-27T19:33:52.182Z,7.30
2018-01-27T19:36:20.693Z,7.30
2018-01-27T19:38:48.502Z,7.30
2018-01-27T19:41:16.260Z,7.30
2018-01-27T19:43:44.009Z,7.30
2018-01-27T19:46:11.811Z,7.30
2018-01-27T19:48:40.336Z,7.30
2018-01-27T19:51:08.085Z,7.30
2018-01-27T19:53:35.892Z,7.30
2018-01-27T19:56:03.655Z,7.20
2018-01-27T19:58:31.401Z,7.20
2018-01-27T20:00:59.217Z,7.20
2018-01-27T20:03:26.961Z,7.20
2018-01-27T20:05:55.475Z,7.10
2018-01-27T20:08:23.286Z,7.10
2018-01-27T20:10:51.802Z,7.20
2018-01-27T20:13:19.561Z,7.10
2018-01-27T20:15:47.366Z,7.10
2018-01-27T20:18:15.154Z,7.10
2018-01-27T20:20:43.697Z,7.00
2018-01-27T20:23:11.508Z,6.90
2018-01-27T20:25:40.028Z,6.90
2018-01-27T20:28:07.834Z,6.90
2018-01-27T20:30:35.648Z,6.90
2018-01-27T20:33:03.432Z,6.80
2018-01-27T20:35:31.225Z,6.80
2018-01-27T20:37:59.801Z,6.70
2018-01-27T20:40:27.553Z,6.70
2018-01-27T20:42:55.302Z,6.70
2018-01-27T20:45:23.240Z,6.70
2018-01-27T20:47:51.007Z,6.70
2018-01-27T20:50:18.777Z,6.70
2018-01-27T20:52:46.670Z,6.60
2018-01-27T20:55:14.440Z,6.60
2018-01-27T20:57:42.967Z,6.60
2018-01-27T21:00:10.785Z,6.50
2018-01-27T21:02:38.539Z,6.50
2018-01-27T21:05:06.312Z,6.40
2018-01-27T21:07:34.907Z,6.30
2018-01-27T21:10:03.461Z,6.20
2018-01-27T21:12:31.218Z,6.10
2018-01-27T21:14:59.031Z,6.10
2018-01-27T21:17:26.791Z,6.20
2018-01-27T21:19:54.575Z,6.20
2018-01-27T21:22:22.486Z,6.20
2018-01-27T21:24:51.004Z,6.10
2018-01-27T21:27:18.787Z,6.10
2018-01-27T21:29:46.636Z,6.10
2018-01-27T21:32:14.431Z,6.10
2018-01-27T21:34:42.978Z,6.10
2018-01-27T21:37:10.793Z,6.10
2018-01-27T21:39:38.546Z,6.10
2018-01-27T21:42:06.306Z,6.10
2018-01-27T21:44:34.118Z,6.10
2018-01-27T21:47:01.876Z,6.10
2018-01-27T21:49:29.635Z,6.00
2018-01-27T21:51:57.446Z,5.90
2018-01-27T21:54:25.196Z,5.90
2018-01-27T21:56:52.946Z,5.90
2018-01-27T21:59:20.802Z,5.80
2018-01-27T22:01:49.270Z,5.80
2018-01-27T22:04:17.039Z,5.90
2018-01-27T22:06:44.851Z,5.90
2018-01-27T22:09:12.602Z,6.00
2018-01-27T22:11:40.408Z,6.00
2018-01-27T22:14:08.262Z,5.90
2018-01-27T22:16:36.778Z,6.00
2018-01-27T22:19:04.539Z,6.00
2018-01-27T22:21:32.341Z,6.00
2018-01-27T22:24:00.104Z,6.00
2018-01-27T22:26:29.536Z,6.00
2018-01-27T22:28:57.348Z,6.00
2018-01-27T22:31:25.107Z,5.90
2018-01-27T22:33:52.871Z,5.90
2018-01-27T22:36:20.679Z,5.90
2018-01-27T22:38:48.431Z,5.80
2018-01-27T22:41:16.953Z,5.70
2018-01-27T22:43:45.534Z,5.70
2018-01-27T22:46:13.287Z,5.60
2018-01-27T22:48:41.038Z,5.70
2018-01-27T22:51:08.938Z,5.80
2018-01-27T22:53:37.110Z,5.80
2018-01-27T22:56:04.855Z,5.80
2018-01-27T22:58:33.352Z,5.80
2018-01-27T23:01:06.682Z,5.80
2018-01-27T23:03:35.247Z,5.80
2018-01-27T23:06:03.006Z,5.80
2018-01-27T23:08:30.763Z,5.70
2018-01-27T23:10:58.568Z,5.60
2018-01-27T23:13:26.330Z,5.50
2018-01-27T23:15:54.095Z,5.40
2018-01-27T23:18:21.903Z,5.20
2018-01-27T23:20:50.423Z,5.00
2018-01-27T23:23:18.227Z,5.00
2018-01-27T23:25:46.040Z,4.90
2018-01-27T23:28:14.701Z,4.80
2018-01-27T23:30:42.511Z,4.80
2018-01-27T23:33:10.314Z,4.80
2018-01-27T23:35:38.079Z,4.80
2018-01-27T23:38:05.840Z,4.70
2018-01-27T23:40:33.646Z,4.70
2018-01-27T23:43:01.412Z,4.70
2018-01-27T23:45:29.167Z,4.70
2018-01-27T23:47:57.004Z,4.70
2018-01-27T23:50:24.758Z,4.70
2018-01-27T23:52:52.506Z,4.60
2018-01-27T23:55:20.480Z,4.60
2018-01-27T23:57:48.245Z,4.60
